createdAt,value
2017-12-06T00:01:49.227Z,67.37
2017-12-06T00:04:15.705Z,67.38
2017-12-06T00:06:42.065Z,67.02
2017-12-06T00:09:10.221Z,66.97
2017-12-06T00:11:36.595Z,66.71
2017-12-06T00:14:08.987Z,66.88
2017-12-06T00:16:35.293Z,66.89
2017-12-06T00:19:01.560Z,66.77
2017-12-06T00:21:28.593Z,66.64
2017-12-06T00:23:54.922Z,67.09
2017-12-06T00:26:21.241Z,66.69
2017-12-06T00:28:48.417Z,66.75
2017-12-06T00:31:15.471Z,66.27
2017-12-06T00:33:41.766Z,66.46
2017-12-06T00:36:08.098Z,66.18
2017-12-06T00:38:34.399Z,66.46
2017-12-06T00:41:01.412Z,66.92
2017-12-06T00:43:29.277Z,66.52
2017-12-06T00:45:55.572Z,66.51
2017-12-06T00:48:22.906Z,65.97
2017-12-06T00:50:49.260Z,65.64
2017-12-06T00:53:15.591Z,65.95
2017-12-06T00:55:41.906Z,66.12
2017-12-06T00:58:08.248Z,65.81
2017-12-06T01:00:44.662Z,65.39
2017-12-06T01:03:10.944Z,65.97
2017-12-06T01:05:37.242Z,66.38
2017-12-06T01:08:03.518Z,66.23
2017-12-06T01:10:29.782Z,65.79
2017-12-06T01:12:56.096Z,65.61
2017-12-06T01:15:23.352Z,65.70
2017-12-06T01:17:50.409Z,65.77
2017-12-06T01:20:16.709Z,65.95
2017-12-06T01:22:43.022Z,65.65
2017-12-06T01:25:09.861Z,65.56
2017-12-06T01:27:36.177Z,65.59
2017-12-06T01:30:03.489Z,65.10
2017-12-06T01:32:29.817Z,65.31
2017-12-06T01:34:56.106Z,64.69
2017-12-06T01:37:22.377Z,65.22
2017-12-06T01:39:48.651Z,65.69
2017-12-06T01:42:14.969Z,65.60
2017-12-06T01:44:41.283Z,65.93
2017-12-06T01:47:07.957Z,65.66
2017-12-06T01:49:34.990Z,65.43
2017-12-06T01:52:01.348Z,65.87
2017-12-06T01:54:27.661Z,65.60
2017-12-06T01:56:53.966Z,65.58
2017-12-06T01:59:20.318Z,65.76
2017-12-06T02:01:46.642Z,66.05
2017-12-06T02:04:12.980Z,66.03
2017-12-06T02:06:39.344Z,65.63
2017-12-06T02:09:05.641Z,65.46
2017-12-06T02:11:31.890Z,65.30
2017-12-06T02:13:58.264Z,65.00
2017-12-06T02:16:24.520Z,64.76
2017-12-06T02:18:50.823Z,64.81
2017-12-06T02:21:17.068Z,65.41
2017-12-06T02:23:43.349Z,65.15
2017-12-06T02:26:09.644Z,64.09
2017-12-06T02:28:35.949Z,65.25
2017-12-06T02:31:02.221Z,65.01
2017-12-06T02:33:29.256Z,65.31
2017-12-06T02:35:55.523Z,65.74
2017-12-06T02:38:21.815Z,65.64
2017-12-06T02:41:06.658Z,65.56
2017-12-06T02:46:41.901Z,65.35
2017-12-06T02:49:08.216Z,64.86
2017-12-06T02:51:34.516Z,65.19
2017-12-06T02:54:01.541Z,65.86
2017-12-06T02:56:27.849Z,65.39
2017-12-06T02:58:54.120Z,65.16
2017-12-06T03:01:21.176Z,64.78
2017-12-06T03:03:48.270Z,64.30
2017-12-06T03:06:14.629Z,64.21
2017-12-06T03:08:41.735Z,65.51
2017-12-06T03:11:08.095Z,65.37
2017-12-06T03:13:34.439Z,65.99
2017-12-06T03:16:00.757Z,65.91
2017-12-06T03:18:27.084Z,65.18
2017-12-06T03:20:53.393Z,64.78
2017-12-06T03:23:19.725Z,65.12
2017-12-06T03:25:46.056Z,64.52
2017-12-06T03:28:12.345Z,64.92
2017-12-06T03:30:38.657Z,65.05
2017-12-06T03:33:05.018Z,65.27
2017-12-06T03:35:32.080Z,64.80
2017-12-06T03:37:58.534Z,64.95
2017-12-06T03:40:24.925Z,65.73
2017-12-06T03:42:51.993Z,65.43
2017-12-06T03:45:18.339Z,65.54
2017-12-06T03:47:44.710Z,65.60
2017-12-06T03:50:11.075Z,65.15
2017-12-06T03:52:38.096Z,65.66
2017-12-06T03:55:05.423Z,65.18
2017-12-06T03:57:31.731Z,64.85
2017-12-06T03:59:58.053Z,64.42
2017-12-06T04:02:24.361Z,64.44
2017-12-06T04:04:58.430Z,64.89
2017-12-06T04:07:25.348Z,65.75
2017-12-06T04:09:52.412Z,65.24
2017-12-06T04:12:18.704Z,65.12
2017-12-06T04:14:45.777Z,65.53
2017-12-06T04:17:12.111Z,65.53
2017-12-06T04:19:38.404Z,65.78
2017-12-06T04:22:05.419Z,65.25
2017-12-06T04:24:31.764Z,65.46
2017-12-06T04:26:58.111Z,65.79
2017-12-06T04:29:25.187Z,65.63
2017-12-06T04:31:51.521Z,65.65
2017-12-06T04:34:17.904Z,65.48
2017-12-06T04:36:44.245Z,64.90
2017-12-06T04:39:10.662Z,64.93
2017-12-06T04:41:37.019Z,65.17
2017-12-06T04:44:03.475Z,65.24
2017-12-06T04:46:30.627Z,65.24
2017-12-06T04:48:56.932Z,65.35
2017-12-06T04:51:23.307Z,65.23
2017-12-06T04:53:49.644Z,65.40
2017-12-06T04:56:17.156Z,65.48
2017-12-06T04:58:43.562Z,65.20
2017-12-06T05:01:09.891Z,65.09
2017-12-06T05:03:36.272Z,65.44
2017-12-06T05:06:03.331Z,65.69
2017-12-06T05:08:29.722Z,65.51
2017-12-06T05:13:29.271Z,65.28
2017-12-06T05:15:56.307Z,65.47
2017-12-06T05:18:22.668Z,65.01
2017-12-06T05:20:48.966Z,65.47
2017-12-06T05:23:15.359Z,65.13
2017-12-06T05:25:41.678Z,64.91
2017-12-06T05:28:08.620Z,65.27
2017-12-06T05:30:35.087Z,65.36
2017-12-06T05:33:01.480Z,65.74
2017-12-06T05:35:27.844Z,65.75
2017-12-06T05:37:54.970Z,65.21
2017-12-06T05:40:21.344Z,65.12
2017-12-06T05:42:47.895Z,65.38
2017-12-06T05:45:14.465Z,65.06
2017-12-06T05:47:40.939Z,65.17
2017-12-06T05:50:07.252Z,65.18
2017-12-06T05:52:33.609Z,64.27
2017-12-06T05:54:59.962Z,64.48
2017-12-06T05:57:26.347Z,64.50
2017-12-06T05:59:52.664Z,65.00
2017-12-06T06:02:18.967Z,65.01
2017-12-06T06:04:46.275Z,64.89
2017-12-06T06:07:12.625Z,64.47
2017-12-06T06:09:38.989Z,64.78
2017-12-06T06:12:06.096Z,64.41
2017-12-06T06:14:32.486Z,64.43
2017-12-06T06:16:58.904Z,63.83
2017-12-06T06:19:25.277Z,63.98
2017-12-06T06:21:52.704Z,64.13
2017-12-06T06:24:19.298Z,64.33
2017-12-06T06:26:45.768Z,63.96
2017-12-06T06:29:12.238Z,63.90
2017-12-06T06:31:38.528Z,64.11
2017-12-06T06:34:05.619Z,63.91
2017-12-06T06:36:31.979Z,63.92
2017-12-06T06:38:58.319Z,63.59
2017-12-06T06:41:24.673Z,63.73
2017-12-06T06:43:50.977Z,63.23
2017-12-06T06:46:17.279Z,63.06
2017-12-06T06:48:43.625Z,62.82
2017-12-06T06:51:10.003Z,62.77
2017-12-06T06:53:36.439Z,63.06
2017-12-06T06:56:02.765Z,63.07
2017-12-06T06:58:29.816Z,63.48
2017-12-06T07:00:56.145Z,63.55
2017-12-06T07:03:23.758Z,63.16
2017-12-06T07:05:50.866Z,62.90
2017-12-06T07:08:17.218Z,62.69
2017-12-06T07:10:43.559Z,63.44
2017-12-06T07:13:09.900Z,63.24
2017-12-06T07:15:36.284Z,63.71
2017-12-06T07:18:03.324Z,63.20
2017-12-06T07:20:29.661Z,62.92
2017-12-06T07:22:56.705Z,63.34
2017-12-06T07:25:23.892Z,63.73
2017-12-06T07:27:50.254Z,62.80
2017-12-06T07:30:16.632Z,62.48
2017-12-06T07:32:43.029Z,62.26
2017-12-06T07:35:09.413Z,62.30
2017-12-06T07:37:35.753Z,62.15
2017-12-06T07:40:02.191Z,61.61
2017-12-06T07:42:28.613Z,62.07
2017-12-06T07:44:54.995Z,62.32
2017-12-06T07:47:21.491Z,62.14
2017-12-06T07:49:47.844Z,61.80
2017-12-06T07:52:14.195Z,62.03
2017-12-06T07:54:41.398Z,61.70
2017-12-06T07:57:07.728Z,61.04
2017-12-06T07:59:34.030Z,61.37
2017-12-06T08:02:01.105Z,61.18
2017-12-06T08:04:27.446Z,61.32
2017-12-06T08:06:53.811Z,62.16
2017-12-06T08:09:20.897Z,62.65
2017-12-06T08:11:47.313Z,62.48
2017-12-06T08:14:14.349Z,61.73
2017-12-06T08:16:40.720Z,61.21
2017-12-06T08:19:07.257Z,61.31
2017-12-06T08:21:33.777Z,62.02
2017-12-06T08:24:00.081Z,62.23
2017-12-06T08:26:26.430Z,61.95
2017-12-06T08:28:53.613Z,61.82
2017-12-06T08:31:20.004Z,62.17
2017-12-06T08:33:46.432Z,61.93
2017-12-06T08:36:12.788Z,62.24
2017-12-06T08:38:40.017Z,62.09
2017-12-06T08:41:06.398Z,62.32
2017-12-06T08:43:32.730Z,61.48
2017-12-06T08:45:59.042Z,61.85
2017-12-06T08:48:25.649Z,61.55
2017-12-06T08:50:52.804Z,61.11
2017-12-06T08:53:19.240Z,60.66
2017-12-06T08:55:45.602Z,60.48
2017-12-06T08:58:11.976Z,61.19
2017-12-06T09:00:38.366Z,61.00
2017-12-06T09:03:05.009Z,59.96
2017-12-06T09:05:31.449Z,61.22
2017-12-06T09:07:57.826Z,61.75
2017-12-06T09:10:24.619Z,61.79
2017-12-06T09:12:50.983Z,62.04
2017-12-06T09:15:17.319Z,62.08
2017-12-06T09:17:44.403Z,61.77
2017-12-06T09:20:10.893Z,61.27
2017-12-06T09:22:38.187Z,61.58
2017-12-06T09:25:05.372Z,61.02
2017-12-06T09:27:31.925Z,60.15
2017-12-06T09:29:59.258Z,60.59
2017-12-06T09:32:25.686Z,60.74
2017-12-06T09:34:52.939Z,60.81
2017-12-06T09:37:20.198Z,60.22
2017-12-06T09:39:47.332Z,59.88
2017-12-06T09:42:13.686Z,59.62
2017-12-06T09:44:40.102Z,60.14
2017-12-06T09:47:07.229Z,60.14
2017-12-06T09:49:34.019Z,60.35
2017-12-06T09:52:00.528Z,59.06
2017-12-06T09:54:26.961Z,59.54
2017-12-06T09:56:53.368Z,61.27
2017-12-06T09:59:19.788Z,61.08
2017-12-06T10:01:47.076Z,60.43
2017-12-06T10:04:13.565Z,60.15
2017-12-06T10:06:39.987Z,60.35
2017-12-06T10:09:06.345Z,60.86
2017-12-06T10:11:32.784Z,60.35
2017-12-06T10:14:00.013Z,59.42
2017-12-06T10:16:26.328Z,59.42
2017-12-06T10:18:52.784Z,60.41
2017-12-06T10:21:19.160Z,60.77
2017-12-06T10:23:45.516Z,60.95
2017-12-06T10:26:11.886Z,60.12
2017-12-06T10:28:38.254Z,60.41
2017-12-06T10:31:05.340Z,60.84
2017-12-06T10:33:31.734Z,60.48
2017-12-06T10:35:58.198Z,60.38
2017-12-06T10:38:25.662Z,60.33
2017-12-06T10:40:52.267Z,60.16
2017-12-06T10:43:19.000Z,59.69
2017-12-06T10:45:46.367Z,59.08
2017-12-06T10:48:13.097Z,60.85
2017-12-06T10:50:40.205Z,59.89
2017-12-06T10:53:06.697Z,59.31
2017-12-06T10:55:33.751Z,59.89
2017-12-06T10:58:00.201Z,61.05
2017-12-06T11:00:26.537Z,60.23
2017-12-06T11:02:53.003Z,59.37
2017-12-06T11:05:19.376Z,59.96
2017-12-06T11:07:46.534Z,59.22
2017-12-06T11:10:13.010Z,59.17
2017-12-06T11:12:39.392Z,58.44
2017-12-06T11:15:06.468Z,59.00
2017-12-06T11:17:32.874Z,60.06
2017-12-06T11:19:59.272Z,60.15
2017-12-06T11:22:25.652Z,60.08
2017-12-06T11:24:52.076Z,59.68
2017-12-06T11:27:18.582Z,59.39
2017-12-06T11:29:44.958Z,59.60
2017-12-06T11:32:11.751Z,59.90
2017-12-06T11:34:38.096Z,60.49
2017-12-06T11:37:05.241Z,59.76
2017-12-06T11:39:31.736Z,59.77
2017-12-06T11:41:58.947Z,59.74
2017-12-06T11:44:26.025Z,58.90
2017-12-06T11:46:52.427Z,59.43
2017-12-06T11:49:19.547Z,59.29
2017-12-06T11:51:45.927Z,60.13
2017-12-06T11:54:12.337Z,59.77
2017-12-06T11:56:39.582Z,58.52
2017-12-06T11:59:06.028Z,59.59
2017-12-06T12:01:34.147Z,60.00
2017-12-06T12:04:07.496Z,59.88
2017-12-06T12:06:34.656Z,59.98
2017-12-06T12:09:00.980Z,60.79
2017-12-06T12:11:27.313Z,60.24
2017-12-06T12:13:53.746Z,59.85
2017-12-06T12:16:20.087Z,59.94
2017-12-06T12:18:46.482Z,58.83
2017-12-06T12:21:12.918Z,59.06
2017-12-06T12:23:39.530Z,59.08
2017-12-06T12:26:05.923Z,59.23
2017-12-06T12:28:32.377Z,58.38
2017-12-06T12:30:58.764Z,58.63
2017-12-06T12:33:25.206Z,58.97
2017-12-06T12:35:52.261Z,59.21
2017-12-06T12:38:18.682Z,58.65
2017-12-06T12:40:45.784Z,58.78
2017-12-06T12:43:12.213Z,57.45
2017-12-06T12:45:40.434Z,57.22
2017-12-06T12:48:06.749Z,56.97
2017-12-06T12:50:33.097Z,58.36
2017-12-06T12:52:59.435Z,58.48
2017-12-06T12:55:26.509Z,58.85
2017-12-06T12:57:52.840Z,59.31
2017-12-06T13:00:19.318Z,59.19
2017-12-06T13:02:45.763Z,59.04
2017-12-06T13:05:12.936Z,59.08
2017-12-06T13:07:40.072Z,58.75
2017-12-06T13:10:06.390Z,58.61
2017-12-06T13:12:32.886Z,58.73
2017-12-06T13:14:59.304Z,59.33
2017-12-06T13:17:25.661Z,59.29
2017-12-06T13:19:52.044Z,58.87
2017-12-06T13:22:18.474Z,60.08
2017-12-06T13:24:45.624Z,58.83
2017-12-06T13:27:12.611Z,59.40
2017-12-06T13:29:39.095Z,59.17
2017-12-06T13:32:05.436Z,59.14
2017-12-06T13:34:31.964Z,59.09
2017-12-06T13:36:58.289Z,59.84
2017-12-06T13:39:24.661Z,59.90
2017-12-06T13:41:51.805Z,60.35
2017-12-06T13:44:20.426Z,60.96
2017-12-06T13:46:46.759Z,60.88
2017-12-06T13:49:13.123Z,60.35
2017-12-06T13:51:39.464Z,60.85
2017-12-06T13:54:05.858Z,60.78
2017-12-06T13:56:32.215Z,60.36
2017-12-06T13:58:58.571Z,60.18
2017-12-06T14:01:25.696Z,61.41
2017-12-06T14:03:52.050Z,61.43
2017-12-06T14:06:18.492Z,60.82
2017-12-06T14:08:45.584Z,61.08
2017-12-06T14:11:12.174Z,60.61
2017-12-06T14:13:39.366Z,61.55
2017-12-06T14:16:05.802Z,61.04
2017-12-06T14:18:32.345Z,60.81
2017-12-06T14:20:58.851Z,60.83
2017-12-06T14:23:25.313Z,60.66
2017-12-06T14:25:51.746Z,61.61
2017-12-06T14:28:18.262Z,61.69
2017-12-06T14:30:44.642Z,61.53
2017-12-06T14:33:11.325Z,61.64
2017-12-06T14:35:38.277Z,61.71
2017-12-06T14:38:04.704Z,61.54
2017-12-06T14:40:31.167Z,61.29
2017-12-06T14:42:57.633Z,61.33
2017-12-06T14:45:24.782Z,61.05
2017-12-06T14:47:51.296Z,61.44
2017-12-06T14:50:17.745Z,61.26
2017-12-06T14:52:44.074Z,61.05
2017-12-06T14:55:10.420Z,61.08
2017-12-06T14:57:36.859Z,60.95
2017-12-06T15:00:03.208Z,60.77
2017-12-06T15:02:29.592Z,60.86
2017-12-06T15:04:56.064Z,61.17
2017-12-06T15:07:22.685Z,61.14
2017-12-06T15:09:49.246Z,61.68
2017-12-06T15:12:15.792Z,61.80
2017-12-06T15:14:43.120Z,61.40
2017-12-06T15:17:09.861Z,61.13
2017-12-06T15:19:36.473Z,60.94
2017-12-06T15:22:02.937Z,61.42
2017-12-06T15:24:30.241Z,61.43
2017-12-06T15:26:56.598Z,61.29
2017-12-06T15:29:22.943Z,61.36
2017-12-06T15:31:49.272Z,61.78
2017-12-06T15:34:15.623Z,61.40
2017-12-06T15:36:42.062Z,61.42
2017-12-06T15:39:08.472Z,61.18
2017-12-06T15:41:35.644Z,61.55
2017-12-06T15:44:02.150Z,61.38
2017-12-06T15:46:28.548Z,61.45
2017-12-06T15:48:55.478Z,61.11
2017-12-06T15:51:21.792Z,61.53
2017-12-06T15:53:48.214Z,61.89
2017-12-06T15:56:14.572Z,62.20
2017-12-06T15:58:40.930Z,61.31
2017-12-06T16:01:07.324Z,61.32
2017-12-06T16:03:35.328Z,61.12
2017-12-06T16:06:01.711Z,60.99
2017-12-06T16:08:28.109Z,61.13
2017-12-06T16:10:55.257Z,60.91
2017-12-06T16:13:21.833Z,62.32
2017-12-06T16:15:48.226Z,61.90
2017-12-06T16:18:15.536Z,61.58
2017-12-06T16:20:42.010Z,61.09
2017-12-06T16:23:08.515Z,61.36
2017-12-06T16:25:34.880Z,61.57
2017-12-06T16:28:01.548Z,61.93
2017-12-06T16:30:27.951Z,62.19
2017-12-06T16:32:54.420Z,62.01
2017-12-06T16:35:39.252Z,62.11
2017-12-06T16:38:05.755Z,62.12
2017-12-06T16:40:32.250Z,61.66
2017-12-06T16:42:58.723Z,61.67
2017-12-06T16:45:25.803Z,61.82
2017-12-06T16:47:52.198Z,61.68
2017-12-06T16:50:18.611Z,62.02
2017-12-06T16:52:44.976Z,61.83
2017-12-06T16:55:11.459Z,62.08
2017-12-06T16:57:37.909Z,61.68
2017-12-06T17:00:04.265Z,61.88
2017-12-06T17:02:31.389Z,61.57
2017-12-06T17:04:57.750Z,61.29
2017-12-06T17:07:24.116Z,62.18
2017-12-06T17:09:50.550Z,62.68
2017-12-06T17:12:17.086Z,61.89
2017-12-06T17:14:48.229Z,61.64
2017-12-06T17:17:14.661Z,61.85
2017-12-06T17:19:41.029Z,61.59
2017-12-06T17:22:07.473Z,62.36
2017-12-06T17:24:34.621Z,61.84
2017-12-06T17:27:01.788Z,62.01
2017-12-06T17:29:46.709Z,62.37
2017-12-06T17:32:13.232Z,62.99
2017-12-06T17:34:40.185Z,62.63
2017-12-06T17:37:06.543Z,62.21
2017-12-06T17:39:32.969Z,61.61
2017-12-06T17:42:00.095Z,62.08
2017-12-06T17:44:26.589Z,61.84
2017-12-06T17:46:53.681Z,61.32
2017-12-06T17:49:20.016Z,61.84
2017-12-06T17:51:46.485Z,61.65
2017-12-06T17:54:14.650Z,61.76
2017-12-06T17:56:41.882Z,61.68
2017-12-06T17:59:08.300Z,61.78
2017-12-06T18:01:34.836Z,61.53
2017-12-06T18:04:01.367Z,61.09
2017-12-06T18:06:27.834Z,61.08
2017-12-06T18:08:54.154Z,61.50
2017-12-06T18:11:20.564Z,62.39
2017-12-06T18:13:47.023Z,62.18
2017-12-06T18:16:13.360Z,62.40
2017-12-06T18:18:39.821Z,61.82
2017-12-06T18:21:06.383Z,61.65
2017-12-06T18:23:33.461Z,61.25
2017-12-06T18:26:00.595Z,61.10
2017-12-06T18:28:26.974Z,61.36
2017-12-06T18:30:53.306Z,62.36
2017-12-06T18:33:20.622Z,61.94
2017-12-06T18:35:46.977Z,61.76
2017-12-06T18:38:14.463Z,61.73
2017-12-06T18:40:40.960Z,60.99
2017-12-06T18:43:07.371Z,61.33
2017-12-06T18:45:33.802Z,60.99
2017-12-06T18:48:00.154Z,60.88
2017-12-06T18:50:26.522Z,60.44
2017-12-06T18:52:53.722Z,61.10
2017-12-06T18:55:20.134Z,61.21
2017-12-06T18:57:46.582Z,61.13
2017-12-06T19:00:13.009Z,61.28
2017-12-06T19:02:40.267Z,61.30
2017-12-06T19:05:06.657Z,60.98
2017-12-06T19:07:33.104Z,61.07
2017-12-06T19:09:59.527Z,61.42
2017-12-06T19:12:25.932Z,61.52
2017-12-06T19:14:52.576Z,61.92
2017-12-06T19:17:19.514Z,61.81
2017-12-06T19:19:46.087Z,61.80
2017-12-06T19:22:12.662Z,61.36
2017-12-06T19:24:39.009Z,61.12
2017-12-06T19:27:05.458Z,61.14
2017-12-06T19:29:31.810Z,60.77
2017-12-06T19:31:58.311Z,60.34
2017-12-06T19:34:24.744Z,60.66
2017-12-06T19:36:51.219Z,60.50
2017-12-06T19:39:19.948Z,60.45
2017-12-06T19:41:47.214Z,60.56
2017-12-06T19:44:13.618Z,60.59
2017-12-06T19:46:40.874Z,60.18
2017-12-06T19:49:07.311Z,60.76
2017-12-06T19:51:34.687Z,61.20
2017-12-06T19:54:01.297Z,60.49
2017-12-06T19:56:28.483Z,59.88
2017-12-06T19:58:55.005Z,60.04
2017-12-06T20:01:23.960Z,60.79
2017-12-06T20:03:51.094Z,61.20
2017-12-06T20:06:17.482Z,60.74
2017-12-06T20:08:43.928Z,60.88
2017-12-06T20:11:11.589Z,61.48
2017-12-06T20:13:38.982Z,61.30
2017-12-06T20:16:05.595Z,60.58
2017-12-06T20:18:32.178Z,60.24
2017-12-06T20:21:00.561Z,60.66
2017-12-06T20:23:27.721Z,60.48
2017-12-06T20:25:54.431Z,60.46
2017-12-06T20:28:20.927Z,59.99
2017-12-06T20:30:47.691Z,60.29
2017-12-06T20:33:14.322Z,60.65
2017-12-06T20:35:40.740Z,60.91
2017-12-06T20:38:07.558Z,60.83
2017-12-06T20:40:33.940Z,60.77
2017-12-06T20:43:00.278Z,60.45
2017-12-06T20:45:26.722Z,60.47
2017-12-06T20:47:53.094Z,60.68
2017-12-06T20:50:19.416Z,60.44
2017-12-06T20:52:45.871Z,61.02
2017-12-06T20:55:12.401Z,60.91
2017-12-06T20:57:38.710Z,61.25
2017-12-06T21:00:05.840Z,61.64
2017-12-06T21:02:32.779Z,61.74
2017-12-06T21:05:00.404Z,61.20
2017-12-06T21:07:26.912Z,60.43
2017-12-06T21:09:53.361Z,60.07
2017-12-06T21:12:19.772Z,60.22
2017-12-06T21:14:46.629Z,60.27
2017-12-06T21:17:12.938Z,59.69
2017-12-06T21:19:39.766Z,59.53
2017-12-06T21:22:06.404Z,60.06
2017-12-06T21:24:34.583Z,60.52
2017-12-06T21:27:02.078Z,60.58
2017-12-06T21:29:29.878Z,59.79
2017-12-06T21:31:56.508Z,59.53
2017-12-06T21:34:23.222Z,59.00
2017-12-06T21:36:49.537Z,59.42
2017-12-06T21:39:17.261Z,59.52
2017-12-06T21:41:43.625Z,60.11
2017-12-06T21:44:10.689Z,60.19
2017-12-06T21:46:37.109Z,59.52
2017-12-06T21:49:04.277Z,59.26
2017-12-06T21:51:30.783Z,60.01
2017-12-06T21:53:57.213Z,59.97
2017-12-06T21:56:23.751Z,60.42
2017-12-06T21:58:50.936Z,60.29
2017-12-06T22:01:17.418Z,60.27
2017-12-06T22:03:43.972Z,60.25
2017-12-06T22:06:10.524Z,59.97
2017-12-06T22:08:37.693Z,59.90
2017-12-06T22:11:04.030Z,60.13
2017-12-06T22:13:30.456Z,60.02
2017-12-06T22:15:56.874Z,60.08
2017-12-06T22:18:23.976Z,59.79
2017-12-06T22:20:50.323Z,59.79
2017-12-06T22:23:17.621Z,60.41
2017-12-06T22:25:43.987Z,59.85
2017-12-06T22:28:10.356Z,59.21
2017-12-06T22:30:37.413Z,59.74
2017-12-06T22:33:04.753Z,59.80
2017-12-06T22:35:31.153Z,59.13
2017-12-06T22:37:57.518Z,60.60
2017-12-06T22:40:23.832Z,60.79
2017-12-06T22:42:50.143Z,60.22
2017-12-06T22:45:17.427Z,60.08
2017-12-06T22:47:43.735Z,60.50
2017-12-06T22:50:10.290Z,60.11
2017-12-06T22:52:36.690Z,59.38
2017-12-06T22:55:03.096Z,59.92
2017-12-06T22:57:29.460Z,60.33
2017-12-06T22:59:55.841Z,60.36
2017-12-06T23:02:22.224Z,60.36
2017-12-06T23:04:48.816Z,59.96
2017-12-06T23:07:15.908Z,59.82
2017-12-06T23:09:42.239Z,60.16
2017-12-06T23:12:08.692Z,60.40
2017-12-06T23:14:35.185Z,59.94
2017-12-06T23:17:01.578Z,60.10
2017-12-06T23:19:28.697Z,59.90
2017-12-06T23:21:55.489Z,60.15
2017-12-06T23:24:21.901Z,60.47
2017-12-06T23:26:48.265Z,60.38
2017-12-06T23:29:14.739Z,59.89
2017-12-06T23:31:41.137Z,59.92
2017-12-06T23:34:07.502Z,59.66
2017-12-06T23:36:33.877Z,59.88
2017-12-06T23:39:01.290Z,59.40
2017-12-06T23:41:27.621Z,60.02
2017-12-06T23:43:54.959Z,59.40
2017-12-06T23:46:22.284Z,59.54
2017-12-06T23:48:48.624Z,59.56
2017-12-06T23:51:15.128Z,59.34
2017-12-06T23:53:41.484Z,60.46
2017-12-06T23:56:08.092Z,60.08
2017-12-06T23:58:34.425Z,59.87
